首页
METAR-TAF:

METAR-TAF

机场 :

Wallops Flight Facility (NASA)

瓦勒普斯岛, 弗吉尼亚州, 美国

纬度: 37-56-26N, 经度: 075-27-47W, 海拔: 12米

当前天气观测

该预报发布于20分钟前的19:54 UTC
风速14节,风向
温度 7°C
湿度 93%
气压 1016 hPa
能見度: 6.4公里
阴天层高于900英尺
轻雾

METAR: KWAL 171954Z AUTO 01014KT 4SM BR OVC009 07/06 A3001 RMK AO2 SLP158 T00720061

时间: 15:14 (20:14 UTC)


TAF: 丢失

超过4000个机场的气象观测和天气预报(METAR&TAF报告)。

可查询的气象台以黄色和红色小点在地图上表示。

将鼠标移到小点上方,可查看气象台名称。

然后点击查看天气观测和预报。

如需切换地图:点击带黑十字的绿色按钮放大地图;点击带横线的绿色按钮缩小地图;或者点击绿色箭头查看邻近地区的地图。


METAR-TAF: